Arnold, Kansas
Current Conditions -  °F | °C
As of 7:35 PM on Thursday 27 Nov 2014 (Local Time) from KHYS Reporting Station
Clear Clear  
Wind Chill: 30°   Ceiling: Unl
Heat Index: 37°   Visibility: 10mi
Dew Point: 18°   Wind: 10mph
Humidity: 45%   Direction: 150°SSE
Pressure: 30.1"   Gusts: NA
Location:  38.64°N, 100.05°W
Report Text: KHYS 280135Z AUTO 15009KT 10SM CLR 03/M08 A3010 RMK AO1
Loading
Personal Weather Stations






























Interactive Weather Map New forecast layout! Learn more

10-Day Weather Forecast

Advertisements
Track Severe Weather on mobile